Elkins-Randolph Co-Jennings Randolph Field
KEKN : rendu visible

Aérodrome :











RETROUVEZ-NOUS SUR...

 
LOGIN :

S'inscrire | Disclaimer

   EN    FR    IT 

 









Légende :    VFR   VFR Marginal   IFR   IFR Intensif   IFR Très Intensif
Visi : 
Plafond : 
>= 8 km
>= 3000ft
5 à 8 km
1000 à 3000 ft
1500m à 5 km
500 à 1000 ft
800 à 1500m
200 à 500 ft
< 800m
< 200 ft
Symboles :   Orages  Brouillard  Fortes neiges  Fortes précipitations  Vent > 20 kt






- Altitude de l'aérodrome : 1987 ft


KEKN - Elkins-Randolph Co-Jennings Randolph Field

DERNIER METAR :
  • 222251Z AUTO 29007KT 10SM BKN029 05/01 A3005 RMK AO2 SLP186 T00500006

METARs EXPIRÉS :
  • 222151Z AUTO 29005KT 10SM CLR 05/01 A3003 RMK AO2 SLP177 T00500006
  • 222130Z AUTO 30006KT 10SM SCT024 06/00 A3002 RMK AO2 T00560000
  • 222051Z AUTO 31007KT 10SM OVC024 07/02 A3000 RMK AO2 SLP168 60000 T00670017 51013

TAF KEKN
Valide du 22 à 18h jusqu'au 23 à 18h UTC


221725Z 2218/2318 30011G18KT 5SM -RA OVC020
FM221900 30006KT P6SM OVC024
FM222230 30007KT P6SM BKN040
FM231600 17008G14KT P6SM BKN180



MET'MAP, la Météo Aéronautique d'un coup d'oeil ! - Copyright ORBIFLY Décembre 2007 - Disclaimer

ORBIFLY MET'MAP TEAM :

Programmation & Développement : Alexandra Zaïnal
Conception & Développement : Baudouin d'Aumeries
Co-Programmation & Développement : Marc-Olivier Méhu
Soutien technique & logistique : Manuel Goepfert

Contact : metmap@orbifly.com




SOURCES & CREDITS :

   NOAA       Earth
Advisory